createdAt,value
2019-02-28T00:03:41.258Z,5.48
2019-02-28T00:09:36.257Z,6.75
2019-02-28T00:15:31.198Z,6.2
2019-02-28T00:21:26.278Z,8.62
2019-02-28T00:27:22.046Z,4.9
2019-02-28T00:33:16.183Z,4.04
2019-02-28T00:39:11.211Z,3.93
2019-02-28T00:45:06.204Z,14.79
2019-02-28T00:51:01.204Z,8.64
2019-02-28T00:56:56.228Z,5
2019-02-28T01:02:53.217Z,9.79
2019-02-28T01:08:46.203Z,13.76
2019-02-28T01:14:41.231Z,8.36
2019-02-28T01:20:39.188Z,10.41
2019-02-28T01:26:31.221Z,9.41
2019-02-28T01:32:26.209Z,5.19
2019-02-28T01:38:23.861Z,5.29
2019-02-28T01:44:16.226Z,5.24
2019-02-28T01:50:11.219Z,4.94
2019-02-28T01:56:06.216Z,4.7
2019-02-28T02:02:05.525Z,4.98
2019-02-28T02:07:56.207Z,4.71
2019-02-28T02:13:51.222Z,5.3
2019-02-28T02:19:46.217Z,6.09
2019-02-28T02:25:41.246Z,4.88
2019-02-28T02:31:36.209Z,4.7
2019-02-28T02:37:31.370Z,4.59
2019-02-28T02:43:26.286Z,5.2
2019-02-28T02:49:21.233Z,5.95
2019-02-28T02:55:16.289Z,6.73
2019-02-28T03:01:11.305Z,7.37
2019-02-28T03:07:06.226Z,7.37
2019-02-28T03:13:04.696Z,15.23
2019-02-28T03:18:57.975Z,24.52
2019-02-28T03:24:52.247Z,29.26
2019-02-28T03:30:46.248Z,10.31
2019-02-28T03:36:41.247Z,6.22
2019-02-28T03:42:36.233Z,6.38
2019-02-28T03:48:35.256Z,5.98
2019-02-28T03:54:28.743Z,6.26
2019-02-28T04:00:21.334Z,6.68
2019-02-28T04:06:16.267Z,7.65
2019-02-28T04:12:11.253Z,9.89
2019-02-28T04:18:07.431Z,10.28
2019-02-28T04:24:01.238Z,8.86
2019-02-28T04:29:56.316Z,10.4
2019-02-28T04:35:51.250Z,10.57
2019-02-28T04:41:46.235Z,10.3
2019-02-28T04:47:41.724Z,11.31
2019-02-28T04:53:36.292Z,10.16
2019-02-28T04:59:31.512Z,10.37
2019-02-28T05:05:26.257Z,9.73
2019-02-28T05:11:21.256Z,11.23
2019-02-28T05:17:16.263Z,10.22
2019-02-28T05:23:11.262Z,12.48
2019-02-28T05:29:06.306Z,9.7
2019-02-28T05:35:01.329Z,10.7
2019-02-28T05:40:56.666Z,13.3
2019-02-28T05:46:51.297Z,15.4
2019-02-28T05:52:46.290Z,13.83
2019-02-28T05:58:41.270Z,17.9
2019-02-28T06:04:37.023Z,29.43
2019-02-28T06:10:31.273Z,16.65
2019-02-28T06:16:26.307Z,27.03
2019-02-28T06:22:21.276Z,13.57
2019-02-28T06:28:16.320Z,13.8
2019-02-28T06:34:11.261Z,15.8
2019-02-28T06:40:06.304Z,14.66
2019-02-28T06:46:01.295Z,12.14
2019-02-28T06:51:56.305Z,14.18
2019-02-28T06:57:51.299Z,10.73
2019-02-28T07:03:53.215Z,11.66
2019-02-28T07:09:41.314Z,13.79
2019-02-28T07:15:36.592Z,12.48
2019-02-28T07:21:31.303Z,11.51
2019-02-28T07:27:26.718Z,12.26
2019-02-28T07:33:21.296Z,12.89
2019-02-28T07:39:16.297Z,14.97
2019-02-28T07:45:12.125Z,14.13
2019-02-28T07:51:06.335Z,17.08
2019-02-28T07:57:01.287Z,30.41
2019-02-28T08:02:56.320Z,15.59
2019-02-28T08:08:51.309Z,14.08
2019-02-28T08:14:47.005Z,11.92
2019-02-28T08:20:41.294Z,12.5
2019-02-28T08:26:36.312Z,13.51
2019-02-28T08:32:31.300Z,14.04
2019-02-28T08:38:26.321Z,16.5
2019-02-28T08:44:23.738Z,15.63
2019-02-28T08:50:19.190Z,13.39
2019-02-28T08:56:14.032Z,12.36
2019-02-28T09:02:06.354Z,12.01
2019-02-28T09:08:01.295Z,12.84
2019-02-28T09:13:56.326Z,12.52
2019-02-28T09:19:51.365Z,12.32
2019-02-28T09:25:46.311Z,12.64
2019-02-28T09:31:41.399Z,13.61
2019-02-28T09:37:36.334Z,16.16
2019-02-28T09:43:31.322Z,13.05
2019-02-28T09:49:26.307Z,16.11
2019-02-28T09:55:21.348Z,16.96
2019-02-28T10:01:16.364Z,16.78
2019-02-28T10:07:11.309Z,20.1
2019-02-28T10:13:06.301Z,18.33
2019-02-28T10:19:01.320Z,16.58
2019-02-28T10:24:56.306Z,17.83
2019-02-28T10:30:51.311Z,17.77
2019-02-28T10:36:47.736Z,19.45
2019-02-28T10:42:41.501Z,17.96
2019-02-28T10:48:39.297Z,17.99
2019-02-28T10:54:31.345Z,19.83
2019-02-28T11:00:29.321Z,19.25
2019-02-28T11:06:21.326Z,22
2019-02-28T11:12:19.908Z,23.27
2019-02-28T11:18:11.342Z,21.04
2019-02-28T11:24:06.331Z,22.63
2019-02-28T11:30:01.342Z,23.95
2019-02-28T11:35:58.802Z,23.15
2019-02-28T11:41:52.386Z,23
2019-02-28T11:47:46.332Z,21.17
2019-02-28T11:53:41.348Z,23.19
2019-02-28T11:59:36.381Z,22.97
2019-02-28T12:05:31.403Z,23.71
2019-02-28T12:11:26.351Z,22.97
2019-02-28T12:17:21.428Z,23.43
2019-02-28T12:23:16.344Z,23.7
2019-02-28T12:29:12.848Z,20.61
2019-02-28T12:35:06.333Z,21.14
2019-02-28T12:41:01.373Z,21.19
2019-02-28T12:46:56.408Z,20.37
2019-02-28T12:52:51.358Z,19.81
2019-02-28T12:58:46.364Z,19.44
2019-02-28T13:04:41.408Z,21.27
2019-02-28T13:10:36.358Z,20.17
2019-02-28T13:16:31.404Z,21.57
2019-02-28T13:22:26.426Z,24.54
2019-02-28T13:28:22.020Z,21.08
2019-02-28T13:34:16.365Z,20.64
2019-02-28T13:40:11.379Z,21.53
2019-02-28T13:46:06.394Z,19.51
2019-02-28T13:52:01.404Z,19.13
2019-02-28T13:57:56.386Z,19.67
2019-02-28T14:03:51.402Z,19.17
2019-02-28T14:09:46.391Z,18.7
2019-02-28T14:15:41.389Z,18.76
2019-02-28T14:21:36.986Z,17.85
2019-02-28T14:27:31.425Z,15.4
2019-02-28T14:33:26.383Z,17.72
2019-02-28T14:39:21.430Z,16.93
2019-02-28T14:45:16.398Z,17.26
2019-02-28T14:51:11.430Z,16.43
2019-02-28T14:57:06.427Z,17.45
2019-02-28T15:03:02.740Z,17.52
2019-02-28T15:08:56.380Z,16.68
2019-02-28T15:14:51.423Z,16.55
2019-02-28T15:20:46.393Z,15.88
2019-02-28T15:26:41.412Z,12.79
2019-02-28T15:32:36.393Z,8.79
2019-02-28T15:38:31.418Z,7.06
2019-02-28T15:44:29.079Z,8.12
2019-02-28T15:50:21.436Z,7.4
2019-02-28T15:56:19.480Z,8.96
2019-02-28T16:02:11.413Z,7.01
2019-02-28T16:08:10.258Z,6.43
2019-02-28T16:14:01.431Z,6.27
2019-02-28T16:19:56.976Z,6.25
2019-02-28T16:25:51.475Z,6.29
2019-02-28T16:31:46.413Z,6.93
2019-02-28T16:37:41.450Z,7.03
2019-02-28T16:43:36.461Z,6.38
2019-02-28T16:49:31.466Z,7.93
2019-02-28T16:55:27.412Z,8.66
2019-02-28T17:01:21.502Z,9.53
2019-02-28T17:07:16.436Z,10.98
2019-02-28T17:13:11.568Z,12.4
2019-02-28T17:19:08.461Z,11.95
2019-02-28T17:25:01.471Z,14.66
2019-02-28T17:30:56.450Z,17.36
2019-02-28T17:36:51.467Z,13.4
2019-02-28T17:42:49.516Z,24.58
2019-02-28T17:48:41.461Z,26.18
2019-02-28T17:54:36.455Z,29.68
2019-02-28T18:00:31.450Z,21.9
2019-02-28T18:06:26.452Z,24.73
2019-02-28T18:12:21.452Z,26.75
2019-02-28T18:18:17.935Z,18.12
2019-02-28T18:24:11.555Z,18.58
2019-02-28T18:30:08.979Z,15.22
2019-02-28T18:36:01.495Z,33.98
2019-02-28T18:41:56.479Z,29.43
2019-02-28T18:47:51.522Z,19.82
2019-02-28T18:53:46.478Z,21.78
2019-02-28T18:59:41.599Z,17.18
2019-02-28T19:05:36.462Z,27.29
2019-02-28T19:11:31.464Z,33.95
2019-02-28T19:17:26.472Z,50.21
2019-02-28T19:23:21.488Z,24.01
2019-02-28T19:29:16.488Z,18.9
2019-02-28T19:35:11.502Z,22.77
2019-02-28T19:41:06.477Z,17.85
2019-02-28T19:47:01.556Z,17.03
2019-02-28T19:52:56.477Z,26.02
2019-02-28T19:58:51.502Z,22.27
2019-02-28T20:04:46.487Z,18.07
2019-02-28T20:10:41.519Z,14.55
2019-02-28T20:16:36.526Z,21.4
2019-02-28T20:22:31.510Z,18.47
2019-02-28T20:28:26.537Z,13.83
2019-02-28T20:34:21.551Z,13.35
2019-02-28T20:40:16.542Z,12.59
2019-02-28T20:46:11.492Z,13.32
2019-02-28T20:52:06.529Z,12.84
2019-02-28T20:58:01.529Z,13.05
2019-02-28T21:03:56.723Z,12.41
2019-02-28T21:09:51.520Z,13.95
2019-02-28T21:15:46.489Z,15.47
2019-02-28T21:21:41.502Z,15.07
2019-02-28T21:27:36.547Z,15.69
2019-02-28T21:33:31.539Z,14.93
2019-02-28T21:39:26.536Z,17.35
2019-02-28T21:45:21.541Z,18.57
2019-02-28T21:51:16.531Z,15.71
2019-02-28T21:57:11.523Z,17.07
2019-02-28T22:03:06.530Z,16.07
2019-02-28T22:09:01.574Z,16.5
2019-02-28T22:14:56.573Z,15.9
2019-02-28T22:20:51.514Z,19.35
2019-02-28T22:26:46.529Z,17.26
2019-02-28T22:32:41.516Z,14.17
2019-02-28T22:38:36.530Z,16.59
2019-02-28T22:44:31.548Z,13.51
2019-02-28T22:50:26.538Z,22.14
2019-02-28T22:56:21.547Z,14.86
2019-02-28T23:02:16.519Z,14.92
2019-02-28T23:08:11.511Z,13.62
2019-02-28T23:14:06.528Z,13.86
2019-02-28T23:20:01.531Z,13.12
2019-02-28T23:26:05.764Z,14.26
2019-02-28T23:31:51.561Z,14.51
2019-02-28T23:37:46.535Z,20.26
2019-02-28T23:43:41.544Z,22.54
2019-02-28T23:49:36.538Z,22.28
2019-02-28T23:55:31.547Z,25.43
